Skip to main content

NOAA/GLERL Met Station at Michigan City, IN

Previous 5 days (top of hour only)
See also Previous 3 Hours (2 minute increments)
Jump down to Data
Switch to [English][Metric]
Zoom: Click and drag, Pan: shift-click and drag, Unzoom: double-click, Unzoom All






Note: Speed = mean wind during 2-minute period at top of hour,
Gust = max wind during 2-minute period at top of hour,
Peak = max wind during entire hour.
• See also 5-day windrose plot


NOAA/GLERL Met Station at Michigan City, IN

Previous 5 days (top of hour only)
See also Previous 3 Hours (2 minute increments)
Jump up to Graphs
Switch to [English][Metric]
                  Wind  Wind  Wind   Air   Dew   Rel     Sta   PAR
                   Spd   Gst   Dir  Temp    Pt   Hum    Pres uE/m2/
YYYY-MM-DD   CDT   kts   kts   deg     F     F     %   in Hg   sec
2024-07-15 07:00   7.8   9.1   268  69.1  67.3  93.9   29.17   328
2024-07-15 06:00   4.5   6.4   259  68.2  67.3  97.0   29.17    75
2024-07-15 05:00  12.4  14.0   263  68.5  67.4  96.0   29.19     0
2024-07-15 04:00  11.9  14.0   254  69.4  68.5  96.9   29.18     0
2024-07-15 03:00   6.0   6.6   270  69.4  69.0  98.6   29.15     0
2024-07-15 02:00  13.8  15.7   264  69.1  68.9  99.3   29.18     0
2024-07-15 01:00   7.6   8.6   276  69.4  69.1  98.8   29.20     0
2024-07-15 00:00  17.3  20.0   323  68.7  68.7 100.0   29.18     0
2024-07-14 23:00  11.5  14.6   248  80.8  76.9  87.8   29.18     0
2024-07-14 22:00  13.8  16.5   257  80.4  76.7  88.1   29.17     0
2024-07-14 21:00  10.1  12.1   242  79.9  76.6  89.6   29.18     0
2024-07-14 20:00   9.3  10.9   242  81.0  76.4  85.9   29.19     0
2024-07-14 19:00   9.5  11.1   219  80.8  76.1  85.3   29.21   327
2024-07-14 18:00   8.0   8.9   257  82.0  74.3  76.9   29.23   164
2024-07-14 17:00   9.5  11.7   261  81.7  72.7  73.9   29.23   982
2024-07-14 16:00  13.2  15.0   276  82.4  70.9  67.6   29.23   327
2024-07-14 15:00  14.8  18.1   266  81.1  69.7  67.7   29.23  1173
2024-07-14 14:00  12.1  15.0   256  81.3  70.1  68.2   29.23  1310
2024-07-14 13:00  11.3  12.6   272  78.3  69.1  73.0   29.21  1494
2024-07-14 12:00  17.9  21.4   259  72.7  67.0  82.2   29.23   655
2024-07-14 11:00  15.4  18.5   223  71.6  67.2  85.7   29.22   164
2024-07-14 10:00   8.4  10.1   247  70.2  67.8  92.2   29.28   327
2024-07-14 09:00   9.7  12.1   240  74.1  71.2  90.4   29.32   730
2024-07-14 08:00  11.5  13.6   228  71.8  68.8  90.3   29.31   560
2024-07-14 07:00  13.2  15.4   223  69.4  67.4  93.0   29.31   164
2024-07-14 06:00  11.5  14.6   219  68.4  66.7  94.2   29.31     0
2024-07-14 05:00  15.0  17.9   221  68.7  67.5  95.7   29.30     0
2024-07-14 04:00  10.7  13.4   218  68.4  67.1  95.7   29.27     0
2024-07-14 03:00   7.8   8.4    41  68.7  67.7  96.6   29.38     0
2024-07-14 02:00   4.7   4.9   254  69.6  67.5  92.9   29.39     0
2024-07-14 01:00  16.1  19.6    72  68.5  67.7  97.2   29.39     0
2024-07-14 00:00  10.7  12.2   265  79.5  71.7  76.6   29.36     0
2024-07-13 23:00   8.9  12.4   250  79.2  70.1  73.4   29.35     0
2024-07-13 22:00   8.2  11.3   236  79.5  65.8  62.4   29.36     0
2024-07-13 21:00  12.6  15.9   244  79.9  61.4  52.7   29.34     0
2024-07-13 20:00  12.6  16.1   261  84.0  70.3  62.9   29.36     0
2024-07-13 19:00   9.7  12.2   255  85.3  71.0  61.7   29.36   164
2024-07-13 18:00   9.7  13.8   252  85.6  72.4  64.1   29.37   164
2024-07-13 17:00   9.5  12.2   249  85.6  71.8  62.8   29.37   409
2024-07-13 16:00   7.2  10.1   239  85.5  70.9  61.2   29.39  1145
2024-07-13 15:00   5.6   8.7   281  84.9  68.9  58.2   29.42   845
2024-07-13 14:00   8.7  13.0   237  84.2  67.8  57.2   29.44   954
2024-07-13 13:00   8.4  10.5   265  83.5  66.9  56.9   29.44  1567
2024-07-13 12:00   4.7   7.4   305  81.0  68.4  65.0   29.44  1206
2024-07-13 11:00   8.2   9.5   294  80.4  68.1  65.7   29.46  1466
2024-07-13 10:00   6.6   8.0   249  80.1  67.7  65.5   29.45  1309
2024-07-13 09:00   8.7   9.7   271  77.5  69.5  75.8   29.47   982
2024-07-13 08:00   2.3   2.7   233  75.6  66.7  73.6   29.47   655
2024-07-13 07:00   2.3   2.5   248  69.4  65.8  87.9   29.47   328
2024-07-13 06:00   4.3   5.1   199  68.7  64.7  86.7   29.46     0
2024-07-13 05:00   3.7   4.1   225  70.0  64.2  81.6   29.45     0
2024-07-13 04:00   4.3   4.7   192  68.7  65.0  87.7   29.44     0
2024-07-13 03:00   1.7   1.9   141  68.5  66.2  92.0   29.43     0
2024-07-13 02:00   1.9   2.5   183  69.6  66.1  88.5   29.44     0
2024-07-13 01:00   3.3   3.5   193  70.9  66.3  85.2   29.44     0
2024-07-13 00:00   2.1   2.5   173  71.4  66.8  85.1   29.44     0
2024-07-12 23:00   2.1   2.5   154  71.6  66.4  83.5   29.43     0
2024-07-12 22:00   2.5   2.7   152  71.4  68.8  91.4   29.44     0
2024-07-12 21:00   5.1   5.4   123  72.0  69.7  92.5   29.42     0
2024-07-12 20:00   5.8   6.2   105  72.3  69.9  92.1   29.42     0
2024-07-12 19:00   7.4   8.0   124  72.3  69.3  90.1   29.40   320
2024-07-12 18:00   6.6   7.2   111  72.5  69.4  89.9   29.40   552
2024-07-12 17:00   6.2   6.6    88  72.5  69.0  88.7   29.41   818
2024-07-12 16:00   5.6   6.2    87  72.5  68.9  88.4   29.41   981
2024-07-12 15:00   5.8   6.4    78  73.4  68.4  84.1   29.41  1308
2024-07-12 14:00   5.6   6.2    74  73.4  68.6  84.7   29.42  1472
2024-07-12 13:00   6.4   6.8    87  71.2  67.7  88.5   29.43  1472
2024-07-12 12:00   6.8   7.2    94  70.2  67.5  91.1   29.44  1472
2024-07-12 11:00   7.0   7.8    82  71.1  68.0  89.8   29.43  1472
2024-07-12 10:00   2.5   2.9    78  72.7  68.2  85.6   29.43  1309
2024-07-12 09:00   2.1   2.9    87  71.8  67.5  86.2   29.43   982
2024-07-12 08:00   1.7   2.1    83  69.8  67.4  92.0   29.42   655
2024-07-12 07:00   1.4   1.9   305  68.7  66.0  91.0   29.41   328
2024-07-12 06:00   2.1   2.5   190  67.5  65.8  94.2   29.39     0
2024-07-12 05:00   1.4   1.6   260  67.3  65.7  94.5   29.38     0
2024-07-12 04:00   1.2   1.7   180  67.3  65.5  94.0   29.36     0
2024-07-12 03:00   1.9   2.3   242  68.4  65.9  91.6   29.36     0
2024-07-12 02:00   1.2   1.6   137  69.4  64.8  85.0   29.38     0
2024-07-12 01:00   2.1   2.5   190  69.6  66.2  88.6   29.38     0
2024-07-12 00:00   1.4   1.7   115  69.6  68.0  94.4   29.38     0
2024-07-11 23:00  10.5  11.5   118  69.6  66.8  90.7   29.38     0
2024-07-11 22:00   8.7   9.5   101  69.6  66.7  90.4   29.38     0
2024-07-11 21:00  10.1  11.1   106  69.6  66.6  90.0   29.37     0
2024-07-11 20:00   9.7  10.5   120  69.3  67.2  93.2   29.36     0
2024-07-11 19:00  10.5  12.2    95  68.9  67.6  95.7   29.36   273
2024-07-11 18:00   8.7   9.5    96  69.3  68.3  96.7   29.36   491
2024-07-11 17:00  10.9  12.1   110  69.1  67.3  94.0   29.36   818
2024-07-11 16:00  11.1  12.1    94  68.9  67.8  96.1   29.36  1145
2024-07-11 15:00   9.3  10.3    96  69.3  67.9  95.3   29.36  1472
2024-07-11 14:00   8.9   9.1    82  68.9  66.7  92.6   29.37  1636
2024-07-11 13:00  11.1  11.9    47  70.3  66.5  87.3   29.38  1187
2024-07-11 12:00   6.6   7.2    67  71.4  67.0  85.6   29.39  1794
2024-07-11 11:00   3.7   4.5    70  69.1  66.7  92.1   29.39  1092
2024-07-11 09:00   4.1   5.1   199  68.0  65.5  91.6   29.38   328
2024-07-11 08:00   2.9   3.3   188  67.5  65.8  94.3   29.36   321
2024-07-11 07:00   4.1   5.1   118  67.3  66.1  96.0   29.34   164
2024-07-11 06:00   6.8   8.0    76  68.0  67.0  96.5   29.32    20
2024-07-11 05:00   5.8   6.4    63  67.8  66.8  96.4   29.31     0
2024-07-11 04:00   6.0   6.8    36  68.2  65.7  91.5   29.30     0
2024-07-11 03:00   8.0   8.7    41  68.0  66.0  93.2   29.30     0
2024-07-11 02:00   5.6   6.2   354  68.0  67.6  98.6   29.30     0
2024-07-11 01:00   0.8   1.4   269  66.4  65.3  96.1   29.30     0
2024-07-11 00:00   4.1   4.7   259  66.2  64.9  95.6   29.29     0
2024-07-10 23:00   2.5   3.1   352  68.0  66.6  95.1   29.28     0
2024-07-10 22:00   1.2   1.9   333  68.2  66.2  93.3   29.29     0
2024-07-10 21:00   1.9   2.3    91  68.5  66.1  91.9   29.27     0
2024-07-10 20:00   2.5   2.9   118  68.4  66.6  93.9   29.27     0
2024-07-10 19:00   5.4   5.8   101  68.7  66.9  93.7   29.26   327